sensor_id;sensor_type;location;lat;lon;timestamp;P1;durP1;ratioP1;P2;durP2;ratioP2
7531;SDS011;3807;49.030;8.714;2023-03-03T00:00:43;45.13;;;21.80;;
7531;SDS011;3807;49.030;8.714;2023-03-03T00:03:09;36.47;;;20.57;;
7531;SDS011;3807;49.030;8.714;2023-03-03T00:05:36;40.00;;;20.57;;
7531;SDS011;3807;49.030;8.714;2023-03-03T00:08:03;41.50;;;21.50;;
7531;SDS011;3807;49.030;8.714;2023-03-03T00:10:29;40.43;;;20.33;;
7531;SDS011;3807;49.030;8.714;2023-03-03T00:12:55;42.03;;;21.00;;
7531;SDS011;3807;49.030;8.714;2023-03-03T00:15:21;37.20;;;20.10;;
7531;SDS011;3807;49.030;8.714;2023-03-03T00:17:48;43.03;;;21.83;;
7531;SDS011;3807;49.030;8.714;2023-03-03T00:25:55;41.00;;;20.00;;
7531;SDS011;3807;49.030;8.714;2023-03-03T00:30:49;41.63;;;19.13;;
7531;SDS011;3807;49.030;8.714;2023-03-03T00:33:26;40.40;;;20.90;;
7531;SDS011;3807;49.030;8.714;2023-03-03T00:36:49;37.40;;;20.27;;
7531;SDS011;3807;49.030;8.714;2023-03-03T00:41:53;41.27;;;20.67;;
7531;SDS011;3807;49.030;8.714;2023-03-03T00:52:30;32.20;;;18.00;;
7531;SDS011;3807;49.030;8.714;2023-03-03T00:55:00;42.67;;;20.73;;
7531;SDS011;3807;49.030;8.714;2023-03-03T00:57:26;38.00;;;19.40;;
7531;SDS011;3807;49.030;8.714;2023-03-03T00:59:51;37.73;;;19.67;;
7531;SDS011;3807;49.030;8.714;2023-03-03T01:02:16;41.10;;;21.33;;
7531;SDS011;3807;49.030;8.714;2023-03-03T01:04:42;35.90;;;19.13;;
7531;SDS011;3807;49.030;8.714;2023-03-03T01:07:12;35.70;;;18.83;;
7531;SDS011;3807;49.030;8.714;2023-03-03T01:09:38;37.23;;;19.40;;
7531;SDS011;3807;49.030;8.714;2023-03-03T01:12:04;34.80;;;18.87;;
7531;SDS011;3807;49.030;8.714;2023-03-03T01:14:30;33.30;;;17.53;;
7531;SDS011;3807;49.030;8.714;2023-03-03T01:16:55;38.73;;;18.53;;
7531;SDS011;3807;49.030;8.714;2023-03-03T01:19:21;41.87;;;19.77;;
7531;SDS011;3807;49.030;8.714;2023-03-03T01:21:46;36.30;;;19.37;;
7531;SDS011;3807;49.030;8.714;2023-03-03T01:24:12;39.70;;;19.43;;
7531;SDS011;3807;49.030;8.714;2023-03-03T01:26:37;39.50;;;18.83;;
7531;SDS011;3807;49.030;8.714;2023-03-03T01:29:02;35.50;;;18.90;;
7531;SDS011;3807;49.030;8.714;2023-03-03T01:31:28;42.57;;;21.90;;
7531;SDS011;3807;49.030;8.714;2023-03-03T01:33:53;37.33;;;19.90;;
7531;SDS011;3807;49.030;8.714;2023-03-03T01:36:25;39.67;;;19.73;;
7531;SDS011;3807;49.030;8.714;2023-03-03T01:38:51;38.67;;;19.97;;
7531;SDS011;3807;49.030;8.714;2023-03-03T01:41:17;35.80;;;18.47;;
7531;SDS011;3807;49.030;8.714;2023-03-03T01:43:44;38.27;;;19.30;;
7531;SDS011;3807;49.030;8.714;2023-03-03T01:46:27;40.17;;;19.60;;
7531;SDS011;3807;49.030;8.714;2023-03-03T01:48:57;39.83;;;18.73;;
7531;SDS011;3807;49.030;8.714;2023-03-03T01:51:36;39.73;;;19.57;;
7531;SDS011;3807;49.030;8.714;2023-03-03T01:54:10;36.20;;;19.37;;
7531;SDS011;3807;49.030;8.714;2023-03-03T01:56:41;41.27;;;19.93;;
7531;SDS011;3807;49.030;8.714;2023-03-03T01:59:11;35.77;;;19.03;;
7531;SDS011;3807;49.030;8.714;2023-03-03T02:01:42;38.27;;;19.63;;
7531;SDS011;3807;49.030;8.714;2023-03-03T02:04:09;39.07;;;20.07;;
7531;SDS011;3807;49.030;8.714;2023-03-03T02:06:36;41.50;;;21.03;;
7531;SDS011;3807;49.030;8.714;2023-03-03T02:11:43;38.50;;;19.03;;
7531;SDS011;3807;49.030;8.714;2023-03-03T02:14:10;35.30;;;17.43;;
7531;SDS011;3807;49.030;8.714;2023-03-03T02:16:36;36.77;;;18.33;;
7531;SDS011;3807;49.030;8.714;2023-03-03T02:19:03;37.30;;;19.27;;
7531;SDS011;3807;49.030;8.714;2023-03-03T02:21:34;36.70;;;18.40;;
7531;SDS011;3807;49.030;8.714;2023-03-03T02:24:02;37.63;;;18.63;;
7531;SDS011;3807;49.030;8.714;2023-03-03T02:26:40;34.00;;;17.30;;
7531;SDS011;3807;49.030;8.714;2023-03-03T02:29:07;45.73;;;20.00;;
7531;SDS011;3807;49.030;8.714;2023-03-03T02:31:33;40.93;;;20.10;;
7531;SDS011;3807;49.030;8.714;2023-03-03T02:33:59;47.83;;;20.93;;
7531;SDS011;3807;49.030;8.714;2023-03-03T02:36:29;43.63;;;20.57;;
7531;SDS011;3807;49.030;8.714;2023-03-03T02:39:08;39.40;;;18.57;;
7531;SDS011;3807;49.030;8.714;2023-03-03T02:41:39;42.63;;;20.40;;
7531;SDS011;3807;49.030;8.714;2023-03-03T02:44:17;40.77;;;20.83;;
7531;SDS011;3807;49.030;8.714;2023-03-03T02:46:45;38.20;;;18.63;;
7531;SDS011;3807;49.030;8.714;2023-03-03T02:49:13;41.07;;;20.80;;
7531;SDS011;3807;49.030;8.714;2023-03-03T02:51:40;45.17;;;21.13;;
7531;SDS011;3807;49.030;8.714;2023-03-03T02:54:07;40.80;;;19.87;;
7531;SDS011;3807;49.030;8.714;2023-03-03T02:56:33;46.90;;;20.00;;
7531;SDS011;3807;49.030;8.714;2023-03-03T02:58:59;40.53;;;20.13;;
7531;SDS011;3807;49.030;8.714;2023-03-03T03:01:25;45.80;;;21.17;;
7531;SDS011;3807;49.030;8.714;2023-03-03T03:03:51;39.97;;;18.57;;
7531;SDS011;3807;49.030;8.714;2023-03-03T03:06:16;43.53;;;19.83;;
7531;SDS011;3807;49.030;8.714;2023-03-03T03:08:41;40.57;;;18.87;;
7531;SDS011;3807;49.030;8.714;2023-03-03T03:11:07;42.77;;;20.40;;
7531;SDS011;3807;49.030;8.714;2023-03-03T03:13:32;38.50;;;18.83;;
7531;SDS011;3807;49.030;8.714;2023-03-03T03:15:58;37.20;;;18.77;;
7531;SDS011;3807;49.030;8.714;2023-03-03T03:18:25;44.90;;;19.40;;
7531;SDS011;3807;49.030;8.714;2023-03-03T03:20:51;38.03;;;18.37;;
7531;SDS011;3807;49.030;8.714;2023-03-03T03:23:17;41.17;;;18.77;;
7531;SDS011;3807;49.030;8.714;2023-03-03T03:25:42;41.03;;;19.43;;
7531;SDS011;3807;49.030;8.714;2023-03-03T03:28:11;41.70;;;20.10;;
7531;SDS011;3807;49.030;8.714;2023-03-03T03:30:37;37.53;;;18.47;;
7531;SDS011;3807;49.030;8.714;2023-03-03T03:33:03;44.57;;;21.47;;
7531;SDS011;3807;49.030;8.714;2023-03-03T03:35:29;37.83;;;19.97;;
7531;SDS011;3807;49.030;8.714;2023-03-03T03:37:54;42.47;;;20.13;;
7531;SDS011;3807;49.030;8.714;2023-03-03T03:40:19;38.80;;;18.73;;
7531;SDS011;3807;49.030;8.714;2023-03-03T03:42:44;35.90;;;18.27;;
7531;SDS011;3807;49.030;8.714;2023-03-03T03:45:10;40.37;;;18.70;;
7531;SDS011;3807;49.030;8.714;2023-03-03T03:47:39;43.43;;;21.87;;
7531;SDS011;3807;49.030;8.714;2023-03-03T03:50:06;47.97;;;22.70;;
7531;SDS011;3807;49.030;8.714;2023-03-03T03:52:32;40.43;;;20.37;;
7531;SDS011;3807;49.030;8.714;2023-03-03T03:54:57;41.80;;;19.67;;
7531;SDS011;3807;49.030;8.714;2023-03-03T03:57:23;43.23;;;21.20;;
7531;SDS011;3807;49.030;8.714;2023-03-03T03:59:48;49.50;;;22.10;;
7531;SDS011;3807;49.030;8.714;2023-03-03T04:02:14;51.10;;;20.57;;
7531;SDS011;3807;49.030;8.714;2023-03-03T04:04:39;48.40;;;22.00;;
7531;SDS011;3807;49.030;8.714;2023-03-03T04:07:05;54.00;;;22.90;;
7531;SDS011;3807;49.030;8.714;2023-03-03T04:09:30;48.13;;;21.40;;
7531;SDS011;3807;49.030;8.714;2023-03-03T04:11:55;41.20;;;19.90;;
7531;SDS011;3807;49.030;8.714;2023-03-03T04:14:21;53.50;;;23.87;;
7531;SDS011;3807;49.030;8.714;2023-03-03T04:16:46;58.23;;;23.87;;
7531;SDS011;3807;49.030;8.714;2023-03-03T04:19:11;52.40;;;22.97;;
7531;SDS011;3807;49.030;8.714;2023-03-03T04:21:37;48.50;;;21.60;;
7531;SDS011;3807;49.030;8.714;2023-03-03T04:24:02;59.10;;;25.60;;
7531;SDS011;3807;49.030;8.714;2023-03-03T04:26:27;48.00;;;22.97;;
7531;SDS011;3807;49.030;8.714;2023-03-03T04:28:53;50.27;;;21.97;;
7531;SDS011;3807;49.030;8.714;2023-03-03T04:31:18;44.80;;;20.87;;
7531;SDS011;3807;49.030;8.714;2023-03-03T04:33:44;50.43;;;23.40;;
7531;SDS011;3807;49.030;8.714;2023-03-03T04:36:10;53.70;;;22.17;;
7531;SDS011;3807;49.030;8.714;2023-03-03T04:38:35;52.53;;;22.57;;
7531;SDS011;3807;49.030;8.714;2023-03-03T04:41:00;46.20;;;21.30;;
7531;SDS011;3807;49.030;8.714;2023-03-03T04:43:26;50.73;;;23.60;;
7531;SDS011;3807;49.030;8.714;2023-03-03T04:45:51;48.10;;;21.37;;
7531;SDS011;3807;49.030;8.714;2023-03-03T04:48:16;45.23;;;21.53;;
7531;SDS011;3807;49.030;8.714;2023-03-03T04:50:42;47.77;;;22.33;;
7531;SDS011;3807;49.030;8.714;2023-03-03T04:53:07;46.20;;;20.67;;
7531;SDS011;3807;49.030;8.714;2023-03-03T04:55:34;46.20;;;22.27;;
7531;SDS011;3807;49.030;8.714;2023-03-03T04:58:01;49.93;;;23.07;;
7531;SDS011;3807;49.030;8.714;2023-03-03T05:00:27;52.67;;;23.00;;
7531;SDS011;3807;49.030;8.714;2023-03-03T05:02:52;45.77;;;21.50;;
7531;SDS011;3807;49.030;8.714;2023-03-03T05:05:18;43.83;;;21.40;;
7531;SDS011;3807;49.030;8.714;2023-03-03T05:07:43;52.27;;;24.93;;
7531;SDS011;3807;49.030;8.714;2023-03-03T05:10:08;59.27;;;23.93;;
7531;SDS011;3807;49.030;8.714;2023-03-03T05:12:34;51.90;;;23.80;;
7531;SDS011;3807;49.030;8.714;2023-03-03T05:15:00;49.40;;;23.90;;
7531;SDS011;3807;49.030;8.714;2023-03-03T05:17:25;43.67;;;22.20;;
7531;SDS011;3807;49.030;8.714;2023-03-03T05:19:50;46.20;;;19.93;;
7531;SDS011;3807;49.030;8.714;2023-03-03T05:22:16;43.90;;;20.60;;
7531;SDS011;3807;49.030;8.714;2023-03-03T05:24:41;42.40;;;21.50;;
7531;SDS011;3807;49.030;8.714;2023-03-03T05:27:08;47.53;;;20.27;;
7531;SDS011;3807;49.030;8.714;2023-03-03T05:29:33;44.33;;;20.80;;
7531;SDS011;3807;49.030;8.714;2023-03-03T05:31:59;46.47;;;23.10;;
7531;SDS011;3807;49.030;8.714;2023-03-03T05:34:25;42.10;;;22.03;;
7531;SDS011;3807;49.030;8.714;2023-03-03T05:36:50;37.93;;;20.03;;
7531;SDS011;3807;49.030;8.714;2023-03-03T05:39:16;44.60;;;22.30;;
7531;SDS011;3807;49.030;8.714;2023-03-03T05:41:41;43.33;;;19.90;;
7531;SDS011;3807;49.030;8.714;2023-03-03T05:44:07;40.80;;;21.57;;
7531;SDS011;3807;49.030;8.714;2023-03-03T05:46:32;43.57;;;21.87;;
7531;SDS011;3807;49.030;8.714;2023-03-03T05:48:58;45.00;;;22.20;;
7531;SDS011;3807;49.030;8.714;2023-03-03T05:51:23;48.47;;;20.90;;
7531;SDS011;3807;49.030;8.714;2023-03-03T05:53:49;45.03;;;20.93;;
7531;SDS011;3807;49.030;8.714;2023-03-03T05:56:14;51.50;;;21.77;;
7531;SDS011;3807;49.030;8.714;2023-03-03T05:58:40;42.93;;;21.37;;
7531;SDS011;3807;49.030;8.714;2023-03-03T06:01:05;42.87;;;20.83;;
7531;SDS011;3807;49.030;8.714;2023-03-03T06:03:30;46.77;;;21.73;;
7531;SDS011;3807;49.030;8.714;2023-03-03T06:05:56;42.73;;;21.40;;
7531;SDS011;3807;49.030;8.714;2023-03-03T06:08:21;44.10;;;20.80;;
7531;SDS011;3807;49.030;8.714;2023-03-03T06:10:47;49.30;;;22.60;;
7531;SDS011;3807;49.030;8.714;2023-03-03T06:13:12;42.63;;;20.03;;
7531;SDS011;3807;49.030;8.714;2023-03-03T06:15:38;50.43;;;26.77;;
7531;SDS011;3807;49.030;8.714;2023-03-03T06:18:03;46.93;;;22.47;;
7531;SDS011;3807;49.030;8.714;2023-03-03T06:20:29;49.30;;;22.13;;
7531;SDS011;3807;49.030;8.714;2023-03-03T06:22:54;42.73;;;21.67;;
7531;SDS011;3807;49.030;8.714;2023-03-03T06:25:19;45.23;;;20.40;;
7531;SDS011;3807;49.030;8.714;2023-03-03T06:27:45;42.00;;;20.53;;
7531;SDS011;3807;49.030;8.714;2023-03-03T06:30:10;44.17;;;20.70;;
7531;SDS011;3807;49.030;8.714;2023-03-03T06:32:37;45.80;;;22.00;;
7531;SDS011;3807;49.030;8.714;2023-03-03T06:35:02;44.60;;;21.43;;
7531;SDS011;3807;49.030;8.714;2023-03-03T06:37:28;39.30;;;20.70;;
7531;SDS011;3807;49.030;8.714;2023-03-03T06:39:53;46.40;;;21.77;;
7531;SDS011;3807;49.030;8.714;2023-03-03T06:42:19;43.87;;;21.00;;
7531;SDS011;3807;49.030;8.714;2023-03-03T06:44:45;42.60;;;20.37;;
7531;SDS011;3807;49.030;8.714;2023-03-03T06:47:10;45.63;;;21.57;;
7531;SDS011;3807;49.030;8.714;2023-03-03T06:49:36;40.33;;;20.40;;
7531;SDS011;3807;49.030;8.714;2023-03-03T06:52:04;45.27;;;21.23;;
7531;SDS011;3807;49.030;8.714;2023-03-03T06:54:37;46.30;;;21.30;;
7531;SDS011;3807;49.030;8.714;2023-03-03T06:57:06;44.97;;;20.87;;
7531;SDS011;3807;49.030;8.714;2023-03-03T06:59:40;42.63;;;21.70;;
7531;SDS011;3807;49.030;8.714;2023-03-03T07:02:10;51.00;;;23.63;;
7531;SDS011;3807;49.030;8.714;2023-03-03T07:04:39;50.27;;;22.27;;
7531;SDS011;3807;49.030;8.714;2023-03-03T07:07:18;51.20;;;22.50;;
7531;SDS011;3807;49.030;8.714;2023-03-03T07:09:49;55.23;;;24.97;;
7531;SDS011;3807;49.030;8.714;2023-03-03T07:12:20;45.63;;;21.97;;
7531;SDS011;3807;49.030;8.714;2023-03-03T07:14:49;49.53;;;22.60;;
7531;SDS011;3807;49.030;8.714;2023-03-03T07:17:19;53.70;;;24.27;;
7531;SDS011;3807;49.030;8.714;2023-03-03T07:19:47;64.07;;;25.07;;
7531;SDS011;3807;49.030;8.714;2023-03-03T07:22:15;45.63;;;22.30;;
7531;SDS011;3807;49.030;8.714;2023-03-03T07:24:50;46.93;;;23.53;;
7531;SDS011;3807;49.030;8.714;2023-03-03T07:27:24;46.73;;;23.10;;
7531;SDS011;3807;49.030;8.714;2023-03-03T07:29:53;53.80;;;24.17;;
7531;SDS011;3807;49.030;8.714;2023-03-03T07:35:51;50.90;;;24.83;;
7531;SDS011;3807;49.030;8.714;2023-03-03T07:40:49;52.17;;;23.07;;
7531;SDS011;3807;49.030;8.714;2023-03-03T07:45:57;54.17;;;24.40;;
7531;SDS011;3807;49.030;8.714;2023-03-03T07:48:45;46.30;;;22.73;;
7531;SDS011;3807;49.030;8.714;2023-03-03T07:51:12;55.43;;;24.73;;
7531;SDS011;3807;49.030;8.714;2023-03-03T07:53:43;47.97;;;22.37;;
7531;SDS011;3807;49.030;8.714;2023-03-03T07:56:25;53.50;;;24.70;;
7531;SDS011;3807;49.030;8.714;2023-03-03T07:58:53;52.00;;;23.90;;
7531;SDS011;3807;49.030;8.714;2023-03-03T08:01:28;53.83;;;25.77;;
7531;SDS011;3807;49.030;8.714;2023-03-03T08:04:18;58.40;;;27.03;;
7531;SDS011;3807;49.030;8.714;2023-03-03T08:06:47;65.80;;;28.63;;
7531;SDS011;3807;49.030;8.714;2023-03-03T08:11:52;52.90;;;23.97;;
7531;SDS011;3807;49.030;8.714;2023-03-03T08:14:26;53.80;;;25.70;;
7531;SDS011;3807;49.030;8.714;2023-03-03T08:16:57;57.27;;;25.67;;
7531;SDS011;3807;49.030;8.714;2023-03-03T08:19:23;61.23;;;26.67;;
7531;SDS011;3807;49.030;8.714;2023-03-03T08:21:49;54.30;;;25.23;;
7531;SDS011;3807;49.030;8.714;2023-03-03T08:24:15;60.97;;;26.83;;
7531;SDS011;3807;49.030;8.714;2023-03-03T08:26:41;53.27;;;26.10;;
7531;SDS011;3807;49.030;8.714;2023-03-03T08:29:06;57.57;;;24.87;;
7531;SDS011;3807;49.030;8.714;2023-03-03T08:31:31;47.10;;;23.67;;
7531;SDS011;3807;49.030;8.714;2023-03-03T08:33:57;61.60;;;26.90;;
7531;SDS011;3807;49.030;8.714;2023-03-03T08:36:23;56.30;;;25.83;;
7531;SDS011;3807;49.030;8.714;2023-03-03T08:38:48;62.13;;;26.87;;
7531;SDS011;3807;49.030;8.714;2023-03-03T08:41:13;54.27;;;25.77;;
7531;SDS011;3807;49.030;8.714;2023-03-03T08:43:39;53.77;;;24.97;;
7531;SDS011;3807;49.030;8.714;2023-03-03T08:46:04;57.60;;;24.77;;
7531;SDS011;3807;49.030;8.714;2023-03-03T08:48:31;57.97;;;25.73;;
7531;SDS011;3807;49.030;8.714;2023-03-03T08:50:57;50.57;;;25.10;;
7531;SDS011;3807;49.030;8.714;2023-03-03T08:53:23;47.73;;;25.03;;
7531;SDS011;3807;49.030;8.714;2023-03-03T08:55:49;52.97;;;24.77;;
7531;SDS011;3807;49.030;8.714;2023-03-03T08:58:15;51.83;;;24.47;;
7531;SDS011;3807;49.030;8.714;2023-03-03T09:00:42;52.60;;;25.03;;
7531;SDS011;3807;49.030;8.714;2023-03-03T09:03:08;49.23;;;21.97;;
7531;SDS011;3807;49.030;8.714;2023-03-03T09:05:34;37.17;;;19.43;;
7531;SDS011;3807;49.030;8.714;2023-03-03T09:08:02;36.57;;;19.50;;
7531;SDS011;3807;49.030;8.714;2023-03-03T09:10:28;37.37;;;20.10;;
7531;SDS011;3807;49.030;8.714;2023-03-03T09:12:56;33.70;;;17.27;;
7531;SDS011;3807;49.030;8.714;2023-03-03T09:15:27;29.30;;;15.27;;
7531;SDS011;3807;49.030;8.714;2023-03-03T09:17:58;31.17;;;15.57;;
7531;SDS011;3807;49.030;8.714;2023-03-03T09:22:57;29.33;;;15.40;;
7531;SDS011;3807;49.030;8.714;2023-03-03T09:25:40;30.07;;;14.80;;
7531;SDS011;3807;49.030;8.714;2023-03-03T09:28:10;29.23;;;15.37;;
7531;SDS011;3807;49.030;8.714;2023-03-03T09:30:53;27.90;;;15.13;;
7531;SDS011;3807;49.030;8.714;2023-03-03T09:33:39;36.37;;;15.57;;
7531;SDS011;3807;49.030;8.714;2023-03-03T09:38:55;27.87;;;15.23;;
7531;SDS011;3807;49.030;8.714;2023-03-03T09:41:32;28.73;;;15.60;;
7531;SDS011;3807;49.030;8.714;2023-03-03T09:49:56;23.70;;;12.87;;
7531;SDS011;3807;49.030;8.714;2023-03-03T09:52:36;27.53;;;13.90;;
7531;SDS011;3807;49.030;8.714;2023-03-03T09:58:03;35.57;;;16.07;;
7531;SDS011;3807;49.030;8.714;2023-03-03T10:06:30;30.07;;;14.50;;
7531;SDS011;3807;49.030;8.714;2023-03-03T10:17:20;36.50;;;16.47;;
7531;SDS011;3807;49.030;8.714;2023-03-03T10:26:16;31.20;;;15.53;;
7531;SDS011;3807;49.030;8.714;2023-03-03T10:28:47;24.97;;;13.40;;
7531;SDS011;3807;49.030;8.714;2023-03-03T10:34:02;29.57;;;15.53;;
7531;SDS011;3807;49.030;8.714;2023-03-03T10:42:09;30.70;;;16.23;;
7531;SDS011;3807;49.030;8.714;2023-03-03T10:50:19;31.40;;;16.47;;
7531;SDS011;3807;49.030;8.714;2023-03-03T10:52:47;28.30;;;14.13;;
7531;SDS011;3807;49.030;8.714;2023-03-03T11:01:12;32.20;;;16.00;;
7531;SDS011;3807;49.030;8.714;2023-03-03T11:04:08;27.13;;;13.07;;
7531;SDS011;3807;49.030;8.714;2023-03-03T11:15:43;34.67;;;17.67;;
7531;SDS011;3807;49.030;8.714;2023-03-03T11:23:32;36.40;;;17.47;;
7531;SDS011;3807;49.030;8.714;2023-03-03T11:26:11;38.30;;;17.80;;
7531;SDS011;3807;49.030;8.714;2023-03-03T11:29:02;33.93;;;17.47;;
7531;SDS011;3807;49.030;8.714;2023-03-03T11:37:09;30.00;;;15.50;;
7531;SDS011;3807;49.030;8.714;2023-03-03T11:39:41;33.30;;;17.27;;
7531;SDS011;3807;49.030;8.714;2023-03-03T11:45:13;30.20;;;17.27;;
7531;SDS011;3807;49.030;8.714;2023-03-03T11:47:44;36.00;;;17.43;;
7531;SDS011;3807;49.030;8.714;2023-03-03T11:50:55;32.43;;;17.63;;
7531;SDS011;3807;49.030;8.714;2023-03-03T11:58:53;33.53;;;18.70;;
7531;SDS011;3807;49.030;8.714;2023-03-03T12:01:42;20.17;;;11.27;;
7531;SDS011;3807;49.030;8.714;2023-03-03T12:04:20;33.80;;;18.30;;
7531;SDS011;3807;49.030;8.714;2023-03-03T12:07:53;30.37;;;15.17;;
7531;SDS011;3807;49.030;8.714;2023-03-03T12:12:54;32.93;;;18.40;;
7531;SDS011;3807;49.030;8.714;2023-03-03T12:15:24;32.13;;;17.77;;
7531;SDS011;3807;49.030;8.714;2023-03-03T12:23:23;29.13;;;16.60;;
7531;SDS011;3807;49.030;8.714;2023-03-03T12:28:50;33.03;;;18.60;;
7531;SDS011;3807;49.030;8.714;2023-03-03T12:34:02;30.27;;;17.70;;
7531;SDS011;3807;49.030;8.714;2023-03-03T12:42:11;34.47;;;16.03;;
7531;SDS011;3807;49.030;8.714;2023-03-03T12:47:49;31.70;;;17.17;;
7531;SDS011;3807;49.030;8.714;2023-03-03T12:50:24;32.80;;;18.47;;
7531;SDS011;3807;49.030;8.714;2023-03-03T12:55:47;32.73;;;18.60;;
7531;SDS011;3807;49.030;8.714;2023-03-03T12:58:39;37.53;;;18.37;;
7531;SDS011;3807;49.030;8.714;2023-03-03T13:01:21;29.77;;;17.10;;
7531;SDS011;3807;49.030;8.714;2023-03-03T13:04:13;29.83;;;16.10;;
7531;SDS011;3807;49.030;8.714;2023-03-03T13:17:30;33.40;;;19.00;;
7531;SDS011;3807;49.030;8.714;2023-03-03T13:20:00;36.07;;;17.43;;
7531;SDS011;3807;49.030;8.714;2023-03-03T13:30:54;32.97;;;18.50;;
7531;SDS011;3807;49.030;8.714;2023-03-03T13:33:34;29.50;;;16.97;;
7531;SDS011;3807;49.030;8.714;2023-03-03T13:36:02;33.43;;;18.07;;
7531;SDS011;3807;49.030;8.714;2023-03-03T13:38:32;31.30;;;18.30;;
7531;SDS011;3807;49.030;8.714;2023-03-03T13:41:24;38.37;;;18.63;;
7531;SDS011;3807;49.030;8.714;2023-03-03T13:43:57;30.27;;;17.40;;
7531;SDS011;3807;49.030;8.714;2023-03-03T13:46:32;33.47;;;19.23;;
7531;SDS011;3807;49.030;8.714;2023-03-03T13:51:30;32.67;;;19.00;;
7531;SDS011;3807;49.030;8.714;2023-03-03T14:13:51;30.30;;;17.57;;
7531;SDS011;3807;49.030;8.714;2023-03-03T14:19:13;32.83;;;18.83;;
7531;SDS011;3807;49.030;8.714;2023-03-03T14:24:29;29.17;;;17.17;;
7531;SDS011;3807;49.030;8.714;2023-03-03T14:26:56;30.33;;;17.67;;
7531;SDS011;3807;49.030;8.714;2023-03-03T14:31:49;34.20;;;18.63;;
7531;SDS011;3807;49.030;8.714;2023-03-03T14:36:47;32.57;;;18.87;;
7531;SDS011;3807;49.030;8.714;2023-03-03T14:42:11;38.07;;;18.97;;
7531;SDS011;3807;49.030;8.714;2023-03-03T14:44:54;26.50;;;15.77;;
7531;SDS011;3807;49.030;8.714;2023-03-03T14:47:23;33.03;;;17.90;;
7531;SDS011;3807;49.030;8.714;2023-03-03T14:49:51;30.97;;;17.97;;
7531;SDS011;3807;49.030;8.714;2023-03-03T14:52:29;29.77;;;16.90;;
7531;SDS011;3807;49.030;8.714;2023-03-03T14:54:57;31.17;;;19.67;;
7531;SDS011;3807;49.030;8.714;2023-03-03T15:02:39;31.20;;;18.30;;
7531;SDS011;3807;49.030;8.714;2023-03-03T15:08:13;32.63;;;17.10;;
7531;SDS011;3807;49.030;8.714;2023-03-03T15:10:40;45.70;;;19.33;;
7531;SDS011;3807;49.030;8.714;2023-03-03T15:13:09;35.17;;;19.90;;
7531;SDS011;3807;49.030;8.714;2023-03-03T15:15:49;35.73;;;18.03;;
7531;SDS011;3807;49.030;8.714;2023-03-03T15:18:27;32.03;;;18.33;;
7531;SDS011;3807;49.030;8.714;2023-03-03T15:26:19;32.27;;;18.07;;
7531;SDS011;3807;49.030;8.714;2023-03-03T15:37:46;32.07;;;18.07;;
7531;SDS011;3807;49.030;8.714;2023-03-03T15:45:28;36.90;;;17.80;;
7531;SDS011;3807;49.030;8.714;2023-03-03T15:54:01;33.10;;;18.70;;
7531;SDS011;3807;49.030;8.714;2023-03-03T15:56:52;33.97;;;19.47;;
7531;SDS011;3807;49.030;8.714;2023-03-03T16:02:21;34.27;;;18.77;;
7531;SDS011;3807;49.030;8.714;2023-03-03T16:05:06;29.57;;;16.57;;
7531;SDS011;3807;49.030;8.714;2023-03-03T16:10:14;32.40;;;18.43;;
7531;SDS011;3807;49.030;8.714;2023-03-03T16:18:53;30.07;;;15.50;;
7531;SDS011;3807;49.030;8.714;2023-03-03T16:21:42;28.93;;;17.37;;
7531;SDS011;3807;49.030;8.714;2023-03-03T16:35:48;38.90;;;19.03;;
7531;SDS011;3807;49.030;8.714;2023-03-03T16:40:57;31.53;;;18.83;;
7531;SDS011;3807;49.030;8.714;2023-03-03T16:43:57;34.30;;;19.47;;
7531;SDS011;3807;49.030;8.714;2023-03-03T16:46:28;32.03;;;18.37;;
7531;SDS011;3807;49.030;8.714;2023-03-03T16:57:25;29.10;;;16.70;;
7531;SDS011;3807;49.030;8.714;2023-03-03T17:05:50;37.33;;;18.60;;
7531;SDS011;3807;49.030;8.714;2023-03-03T17:14:18;35.97;;;18.63;;
7531;SDS011;3807;49.030;8.714;2023-03-03T17:19:26;33.27;;;20.73;;
7531;SDS011;3807;49.030;8.714;2023-03-03T17:22:19;33.17;;;18.80;;
7531;SDS011;3807;49.030;8.714;2023-03-03T17:24:58;33.27;;;18.23;;
7531;SDS011;3807;49.030;8.714;2023-03-03T17:27:30;34.70;;;19.43;;
7531;SDS011;3807;49.030;8.714;2023-03-03T17:30:02;32.97;;;19.40;;
7531;SDS011;3807;49.030;8.714;2023-03-03T17:41:22;35.50;;;19.43;;
7531;SDS011;3807;49.030;8.714;2023-03-03T17:46:30;35.73;;;19.90;;
7531;SDS011;3807;49.030;8.714;2023-03-03T17:51:58;39.67;;;20.77;;
7531;SDS011;3807;49.030;8.714;2023-03-03T18:08:41;31.03;;;17.93;;
7531;SDS011;3807;49.030;8.714;2023-03-03T18:11:21;39.77;;;17.97;;
7531;SDS011;3807;49.030;8.714;2023-03-03T18:13:58;32.43;;;17.57;;
7531;SDS011;3807;49.030;8.714;2023-03-03T18:19:31;35.10;;;18.43;;
7531;SDS011;3807;49.030;8.714;2023-03-03T18:22:28;35.33;;;18.57;;
7531;SDS011;3807;49.030;8.714;2023-03-03T18:25:03;33.87;;;18.37;;
7531;SDS011;3807;49.030;8.714;2023-03-03T18:27:42;40.87;;;18.77;;
7531;SDS011;3807;49.030;8.714;2023-03-03T18:30:19;40.13;;;20.17;;
7531;SDS011;3807;49.030;8.714;2023-03-03T18:35:21;47.37;;;25.07;;
7531;SDS011;3807;49.030;8.714;2023-03-03T18:37:46;50.63;;;25.93;;
7531;SDS011;3807;49.030;8.714;2023-03-03T18:42:52;42.17;;;22.17;;
7531;SDS011;3807;49.030;8.714;2023-03-03T18:50:43;33.30;;;20.10;;
7531;SDS011;3807;49.030;8.714;2023-03-03T18:53:23;31.80;;;17.57;;
7531;SDS011;3807;49.030;8.714;2023-03-03T18:55:52;28.67;;;16.03;;
7531;SDS011;3807;49.030;8.714;2023-03-03T18:58:22;31.17;;;17.40;;
7531;SDS011;3807;49.030;8.714;2023-03-03T19:00:56;26.73;;;15.50;;
7531;SDS011;3807;49.030;8.714;2023-03-03T19:05:51;30.13;;;17.63;;
7531;SDS011;3807;49.030;8.714;2023-03-03T19:10:56;33.83;;;17.43;;
7531;SDS011;3807;49.030;8.714;2023-03-03T19:16:00;35.13;;;17.73;;
7531;SDS011;3807;49.030;8.714;2023-03-03T19:19:13;34.77;;;18.40;;
7531;SDS011;3807;49.030;8.714;2023-03-03T19:21:25;31.17;;;18.33;;
7531;SDS011;3807;49.030;8.714;2023-03-03T19:23:58;35.70;;;20.07;;
7531;SDS011;3807;49.030;8.714;2023-03-03T19:26:28;32.90;;;18.03;;
7531;SDS011;3807;49.030;8.714;2023-03-03T19:42:53;33.07;;;18.30;;
7531;SDS011;3807;49.030;8.714;2023-03-03T19:45:48;29.40;;;18.27;;
7531;SDS011;3807;49.030;8.714;2023-03-03T19:57:01;35.63;;;19.67;;
7531;SDS011;3807;49.030;8.714;2023-03-03T20:00:13;33.03;;;18.40;;
7531;SDS011;3807;49.030;8.714;2023-03-03T20:02:37;31.17;;;18.03;;
7531;SDS011;3807;49.030;8.714;2023-03-03T20:05:49;30.90;;;17.27;;
7531;SDS011;3807;49.030;8.714;2023-03-03T20:08:20;35.33;;;19.70;;
7531;SDS011;3807;49.030;8.714;2023-03-03T20:10:59;34.10;;;19.47;;
7531;SDS011;3807;49.030;8.714;2023-03-03T20:24:53;40.57;;;18.77;;
7531;SDS011;3807;49.030;8.714;2023-03-03T20:30:17;32.20;;;17.73;;
7531;SDS011;3807;49.030;8.714;2023-03-03T20:38:11;36.87;;;19.13;;
7531;SDS011;3807;49.030;8.714;2023-03-03T20:49:23;41.60;;;19.20;;
7531;SDS011;3807;49.030;8.714;2023-03-03T20:52:11;32.63;;;18.50;;
7531;SDS011;3807;49.030;8.714;2023-03-03T21:00:42;39.17;;;20.10;;
7531;SDS011;3807;49.030;8.714;2023-03-03T21:11:04;38.93;;;20.17;;
7531;SDS011;3807;49.030;8.714;2023-03-03T21:13:41;37.90;;;19.77;;
7531;SDS011;3807;49.030;8.714;2023-03-03T21:16:10;36.50;;;19.53;;
7531;SDS011;3807;49.030;8.714;2023-03-03T21:18:36;36.00;;;19.03;;
7531;SDS011;3807;49.030;8.714;2023-03-03T21:21:02;37.77;;;19.23;;
7531;SDS011;3807;49.030;8.714;2023-03-03T21:23:28;34.70;;;17.23;;
7531;SDS011;3807;49.030;8.714;2023-03-03T21:25:54;30.37;;;17.33;;
7531;SDS011;3807;49.030;8.714;2023-03-03T21:28:23;34.30;;;17.77;;
7531;SDS011;3807;49.030;8.714;2023-03-03T21:31:01;24.73;;;14.47;;
7531;SDS011;3807;49.030;8.714;2023-03-03T21:36:15;45.30;;;18.67;;
7531;SDS011;3807;49.030;8.714;2023-03-03T21:38:42;28.93;;;15.70;;
7531;SDS011;3807;49.030;8.714;2023-03-03T21:41:09;28.10;;;15.93;;
7531;SDS011;3807;49.030;8.714;2023-03-03T21:43:36;33.67;;;16.40;;